sensor_id;sensor_type;location;lat;lon;timestamp;P1;durP1;ratioP1;P2;durP2;ratioP2
32874;SDS011;40468;42.128;24.750;2024-02-26T00:00:43;51.05;;;24.55;;
32874;SDS011;40468;42.128;24.750;2024-02-26T00:02:16;56.20;;;26.15;;
32874;SDS011;40468;42.128;24.750;2024-02-26T00:03:47;51.33;;;25.90;;
32874;SDS011;40468;42.128;24.750;2024-02-26T00:05:20;51.08;;;25.77;;
32874;SDS011;40468;42.128;24.750;2024-02-26T00:06:51;43.15;;;23.92;;
32874;SDS011;40468;42.128;24.750;2024-02-26T00:08:24;45.28;;;24.55;;
32874;SDS011;40468;42.128;24.750;2024-02-26T00:09:55;53.05;;;24.88;;
32874;SDS011;40468;42.128;24.750;2024-02-26T00:11:27;45.67;;;24.10;;
32874;SDS011;40468;42.128;24.750;2024-02-26T00:12:57;46.13;;;23.85;;
32874;SDS011;40468;42.128;24.750;2024-02-26T00:14:29;48.00;;;24.13;;
32874;SDS011;40468;42.128;24.750;2024-02-26T00:16:00;44.78;;;22.55;;
32874;SDS011;40468;42.128;24.750;2024-02-26T00:17:32;48.15;;;22.95;;
32874;SDS011;40468;42.128;24.750;2024-02-26T00:19:03;54.88;;;24.23;;
32874;SDS011;40468;42.128;24.750;2024-02-26T00:20:36;43.30;;;22.65;;
32874;SDS011;40468;42.128;24.750;2024-02-26T00:22:07;45.67;;;22.38;;
32874;SDS011;40468;42.128;24.750;2024-02-26T00:23:39;46.28;;;21.52;;
32874;SDS011;40468;42.128;24.750;2024-02-26T00:25:11;40.33;;;22.15;;
32874;SDS011;40468;42.128;24.750;2024-02-26T00:26:42;44.33;;;23.52;;
32874;SDS011;40468;42.128;24.750;2024-02-26T00:28:14;46.13;;;22.17;;
32874;SDS011;40468;42.128;24.750;2024-02-26T00:29:46;45.15;;;22.05;;
32874;SDS011;40468;42.128;24.750;2024-02-26T00:31:17;49.30;;;22.77;;
32874;SDS011;40468;42.128;24.750;2024-02-26T00:32:48;42.25;;;21.02;;
32874;SDS011;40468;42.128;24.750;2024-02-26T00:34:19;42.75;;;21.77;;
32874;SDS011;40468;42.128;24.750;2024-02-26T00:35:52;44.13;;;20.75;;
32874;SDS011;40468;42.128;24.750;2024-02-26T00:37:23;40.95;;;23.60;;
32874;SDS011;40468;42.128;24.750;2024-02-26T00:38:55;43.15;;;21.98;;
32874;SDS011;40468;42.128;24.750;2024-02-26T00:40:26;38.53;;;21.13;;
32874;SDS011;40468;42.128;24.750;2024-02-26T00:41:58;41.20;;;20.98;;
32874;SDS011;40468;42.128;24.750;2024-02-26T00:43:29;42.20;;;20.58;;
32874;SDS011;40468;42.128;24.750;2024-02-26T00:45:01;43.00;;;20.77;;
32874;SDS011;40468;42.128;24.750;2024-02-26T00:46:32;43.92;;;21.70;;
32874;SDS011;40468;42.128;24.750;2024-02-26T00:48:04;43.00;;;20.42;;
32874;SDS011;40468;42.128;24.750;2024-02-26T00:49:36;42.97;;;21.02;;
32874;SDS011;40468;42.128;24.750;2024-02-26T00:51:09;43.50;;;21.48;;
32874;SDS011;40468;42.128;24.750;2024-02-26T00:52:40;42.72;;;20.50;;
32874;SDS011;40468;42.128;24.750;2024-02-26T00:54:12;37.35;;;20.63;;
32874;SDS011;40468;42.128;24.750;2024-02-26T00:55:43;41.22;;;20.40;;
32874;SDS011;40468;42.128;24.750;2024-02-26T00:57:15;42.53;;;21.05;;
32874;SDS011;40468;42.128;24.750;2024-02-26T00:58:45;43.08;;;21.23;;
32874;SDS011;40468;42.128;24.750;2024-02-26T01:00:17;47.33;;;22.52;;
32874;SDS011;40468;42.128;24.750;2024-02-26T01:01:49;37.10;;;19.10;;
32874;SDS011;40468;42.128;24.750;2024-02-26T01:03:20;31.38;;;17.83;;
32874;SDS011;40468;42.128;24.750;2024-02-26T01:04:51;32.65;;;17.73;;
32874;SDS011;40468;42.128;24.750;2024-02-26T01:06:24;37.03;;;19.23;;
32874;SDS011;40468;42.128;24.750;2024-02-26T01:07:56;36.47;;;18.35;;
32874;SDS011;40468;42.128;24.750;2024-02-26T01:09:27;35.80;;;18.80;;
32874;SDS011;40468;42.128;24.750;2024-02-26T01:10:59;36.50;;;17.77;;
32874;SDS011;40468;42.128;24.750;2024-02-26T01:12:29;31.73;;;18.02;;
32874;SDS011;40468;42.128;24.750;2024-02-26T01:14:01;34.72;;;18.17;;
32874;SDS011;40468;42.128;24.750;2024-02-26T01:15:34;31.63;;;17.77;;
32874;SDS011;40468;42.128;24.750;2024-02-26T01:17:05;37.33;;;18.25;;
32874;SDS011;40468;42.128;24.750;2024-02-26T01:18:37;29.90;;;17.33;;
32874;SDS011;40468;42.128;24.750;2024-02-26T01:20:09;32.63;;;17.38;;
32874;SDS011;40468;42.128;24.750;2024-02-26T01:21:42;40.47;;;18.63;;
32874;SDS011;40468;42.128;24.750;2024-02-26T01:23:14;35.95;;;17.35;;
32874;SDS011;40468;42.128;24.750;2024-02-26T01:24:46;32.05;;;17.33;;
32874;SDS011;40468;42.128;24.750;2024-02-26T01:26:16;36.33;;;17.77;;
32874;SDS011;40468;42.128;24.750;2024-02-26T01:27:48;32.00;;;17.27;;
32874;SDS011;40468;42.128;24.750;2024-02-26T01:29:19;40.47;;;17.17;;
32874;SDS011;40468;42.128;24.750;2024-02-26T01:30:51;36.03;;;17.67;;
32874;SDS011;40468;42.128;24.750;2024-02-26T01:32:21;34.75;;;17.27;;
32874;SDS011;40468;42.128;24.750;2024-02-26T01:33:53;29.58;;;17.33;;
32874;SDS011;40468;42.128;24.750;2024-02-26T01:35:24;31.27;;;16.90;;
32874;SDS011;40468;42.128;24.750;2024-02-26T01:36:58;30.98;;;16.58;;
32874;SDS011;40468;42.128;24.750;2024-02-26T01:38:29;29.15;;;17.20;;
32874;SDS011;40468;42.128;24.750;2024-02-26T01:40:00;31.42;;;17.05;;
32874;SDS011;40468;42.128;24.750;2024-02-26T01:43:04;29.98;;;16.38;;
32874;SDS011;40468;42.128;24.750;2024-02-26T01:44:36;34.55;;;17.67;;
32874;SDS011;40468;42.128;24.750;2024-02-26T01:46:08;31.27;;;16.75;;
32874;SDS011;40468;42.128;24.750;2024-02-26T01:47:43;33.17;;;16.75;;
32874;SDS011;40468;42.128;24.750;2024-02-26T01:49:15;31.02;;;16.80;;
32874;SDS011;40468;42.128;24.750;2024-02-26T01:50:46;31.05;;;16.50;;
32874;SDS011;40468;42.128;24.750;2024-02-26T01:52:19;31.90;;;15.85;;
32874;SDS011;40468;42.128;24.750;2024-02-26T01:55:23;27.05;;;15.18;;
32874;SDS011;40468;42.128;24.750;2024-02-26T01:56:56;29.92;;;15.55;;
32874;SDS011;40468;42.128;24.750;2024-02-26T01:58:29;34.30;;;16.42;;
32874;SDS011;40468;42.128;24.750;2024-02-26T02:00:01;30.52;;;16.13;;
32874;SDS011;40468;42.128;24.750;2024-02-26T02:01:36;32.10;;;16.35;;
32874;SDS011;40468;42.128;24.750;2024-02-26T02:03:10;33.13;;;16.10;;
32874;SDS011;40468;42.128;24.750;2024-02-26T02:04:41;28.90;;;16.13;;
32874;SDS011;40468;42.128;24.750;2024-02-26T02:06:13;26.08;;;14.85;;
32874;SDS011;40468;42.128;24.750;2024-02-26T02:07:47;25.17;;;14.77;;
32874;SDS011;40468;42.128;24.750;2024-02-26T02:09:18;29.23;;;14.95;;
32874;SDS011;40468;42.128;24.750;2024-02-26T02:10:50;27.98;;;15.27;;
32874;SDS011;40468;42.128;24.750;2024-02-26T02:12:21;26.58;;;14.02;;
32874;SDS011;40468;42.128;24.750;2024-02-26T02:13:53;26.45;;;15.25;;
32874;SDS011;40468;42.128;24.750;2024-02-26T02:15:24;25.75;;;14.77;;
32874;SDS011;40468;42.128;24.750;2024-02-26T02:16:56;23.52;;;12.82;;
32874;SDS011;40468;42.128;24.750;2024-02-26T02:18:27;26.52;;;13.77;;
32874;SDS011;40468;42.128;24.750;2024-02-26T02:19:59;26.42;;;14.18;;
32874;SDS011;40468;42.128;24.750;2024-02-26T02:21:31;27.95;;;14.88;;
32874;SDS011;40468;42.128;24.750;2024-02-26T02:23:03;31.80;;;14.27;;
32874;SDS011;40468;42.128;24.750;2024-02-26T02:24:35;30.98;;;13.82;;
32874;SDS011;40468;42.128;24.750;2024-02-26T02:26:07;23.90;;;13.25;;
32874;SDS011;40468;42.128;24.750;2024-02-26T02:27:39;28.55;;;13.70;;
32874;SDS011;40468;42.128;24.750;2024-02-26T02:29:10;23.10;;;12.75;;
32874;SDS011;40468;42.128;24.750;2024-02-26T02:30:43;24.55;;;13.15;;
32874;SDS011;40468;42.128;24.750;2024-02-26T02:32:15;28.75;;;14.30;;
32874;SDS011;40468;42.128;24.750;2024-02-26T02:33:47;28.60;;;13.98;;
32874;SDS011;40468;42.128;24.750;2024-02-26T02:35:20;22.58;;;13.07;;
32874;SDS011;40468;42.128;24.750;2024-02-26T02:36:52;28.10;;;14.23;;
32874;SDS011;40468;42.128;24.750;2024-02-26T02:38:25;23.40;;;13.00;;
32874;SDS011;40468;42.128;24.750;2024-02-26T02:39:56;23.65;;;12.38;;
32874;SDS011;40468;42.128;24.750;2024-02-26T02:41:28;23.35;;;13.77;;
32874;SDS011;40468;42.128;24.750;2024-02-26T02:43:00;25.58;;;13.25;;
32874;SDS011;40468;42.128;24.750;2024-02-26T02:44:32;22.98;;;13.32;;
32874;SDS011;40468;42.128;24.750;2024-02-26T02:46:03;24.88;;;13.45;;
32874;SDS011;40468;42.128;24.750;2024-02-26T02:47:35;24.90;;;13.32;;
32874;SDS011;40468;42.128;24.750;2024-02-26T02:49:08;26.38;;;13.60;;
32874;SDS011;40468;42.128;24.750;2024-02-26T02:50:40;22.02;;;13.35;;
32874;SDS011;40468;42.128;24.750;2024-02-26T02:52:13;26.95;;;14.13;;
32874;SDS011;40468;42.128;24.750;2024-02-26T02:53:45;25.45;;;13.20;;
32874;SDS011;40468;42.128;24.750;2024-02-26T02:55:15;26.67;;;13.70;;
32874;SDS011;40468;42.128;24.750;2024-02-26T02:56:47;25.00;;;13.77;;
32874;SDS011;40468;42.128;24.750;2024-02-26T02:58:18;26.77;;;13.68;;
32874;SDS011;40468;42.128;24.750;2024-02-26T02:59:50;23.63;;;13.38;;
32874;SDS011;40468;42.128;24.750;2024-02-26T03:01:21;27.30;;;13.85;;
32874;SDS011;40468;42.128;24.750;2024-02-26T03:02:53;26.80;;;13.27;;
32874;SDS011;40468;42.128;24.750;2024-02-26T03:04:24;26.55;;;13.25;;
32874;SDS011;40468;42.128;24.750;2024-02-26T03:05:55;26.17;;;12.93;;
32874;SDS011;40468;42.128;24.750;2024-02-26T03:07:28;25.83;;;13.65;;
32874;SDS011;40468;42.128;24.750;2024-02-26T03:08:59;26.75;;;14.60;;
32874;SDS011;40468;42.128;24.750;2024-02-26T03:10:32;24.23;;;12.52;;
32874;SDS011;40468;42.128;24.750;2024-02-26T03:12:03;28.80;;;14.73;;
32874;SDS011;40468;42.128;24.750;2024-02-26T03:13:35;25.50;;;13.57;;
32874;SDS011;40468;42.128;24.750;2024-02-26T03:15:06;24.88;;;13.13;;
32874;SDS011;40468;42.128;24.750;2024-02-26T03:16:38;27.63;;;13.98;;
32874;SDS011;40468;42.128;24.750;2024-02-26T03:18:09;25.00;;;13.77;;
32874;SDS011;40468;42.128;24.750;2024-02-26T03:19:41;28.73;;;13.63;;
32874;SDS011;40468;42.128;24.750;2024-02-26T03:21:12;30.83;;;14.90;;
32874;SDS011;40468;42.128;24.750;2024-02-26T03:22:45;27.52;;;14.95;;
32874;SDS011;40468;42.128;24.750;2024-02-26T03:24:17;28.00;;;15.48;;
32874;SDS011;40468;42.128;24.750;2024-02-26T03:25:47;28.30;;;15.70;;
32874;SDS011;40468;42.128;24.750;2024-02-26T03:27:21;27.00;;;14.90;;
32874;SDS011;40468;42.128;24.750;2024-02-26T03:28:51;27.13;;;14.73;;
32874;SDS011;40468;42.128;24.750;2024-02-26T03:30:23;31.58;;;15.93;;
32874;SDS011;40468;42.128;24.750;2024-02-26T03:31:54;31.33;;;15.77;;
32874;SDS011;40468;42.128;24.750;2024-02-26T03:33:26;32.97;;;16.48;;
32874;SDS011;40468;42.128;24.750;2024-02-26T03:34:57;31.48;;;16.15;;
32874;SDS011;40468;42.128;24.750;2024-02-26T03:36:28;29.67;;;16.17;;
32874;SDS011;40468;42.128;24.750;2024-02-26T03:38:00;30.58;;;16.23;;
32874;SDS011;40468;42.128;24.750;2024-02-26T03:39:33;38.58;;;18.27;;
32874;SDS011;40468;42.128;24.750;2024-02-26T03:41:03;35.85;;;17.45;;
32874;SDS011;40468;42.128;24.750;2024-02-26T03:42:35;39.63;;;18.42;;
32874;SDS011;40468;42.128;24.750;2024-02-26T03:44:06;31.05;;;17.38;;
32874;SDS011;40468;42.128;24.750;2024-02-26T03:45:38;34.33;;;17.20;;
32874;SDS011;40468;42.128;24.750;2024-02-26T03:47:09;34.20;;;17.42;;
32874;SDS011;40468;42.128;24.750;2024-02-26T03:48:41;34.08;;;18.23;;
32874;SDS011;40468;42.128;24.750;2024-02-26T03:50:11;34.63;;;18.15;;
32874;SDS011;40468;42.128;24.750;2024-02-26T03:51:43;34.88;;;18.15;;
32874;SDS011;40468;42.128;24.750;2024-02-26T03:53:15;33.58;;;17.90;;
32874;SDS011;40468;42.128;24.750;2024-02-26T03:54:48;35.28;;;18.42;;
32874;SDS011;40468;42.128;24.750;2024-02-26T03:56:19;35.03;;;19.48;;
32874;SDS011;40468;42.128;24.750;2024-02-26T03:57:51;34.25;;;19.33;;
32874;SDS011;40468;42.128;24.750;2024-02-26T03:59:21;32.90;;;19.00;;
32874;SDS011;40468;42.128;24.750;2024-02-26T04:00:55;33.90;;;18.42;;
32874;SDS011;40468;42.128;24.750;2024-02-26T04:02:26;35.45;;;19.13;;
32874;SDS011;40468;42.128;24.750;2024-02-26T04:03:58;35.15;;;18.98;;
32874;SDS011;40468;42.128;24.750;2024-02-26T04:05:29;41.55;;;19.55;;
32874;SDS011;40468;42.128;24.750;2024-02-26T04:07:00;42.78;;;20.48;;
32874;SDS011;40468;42.128;24.750;2024-02-26T04:08:33;35.10;;;19.88;;
32874;SDS011;40468;42.128;24.750;2024-02-26T04:10:08;40.40;;;19.73;;
32874;SDS011;40468;42.128;24.750;2024-02-26T04:11:39;38.40;;;20.35;;
32874;SDS011;40468;42.128;24.750;2024-02-26T04:13:13;44.67;;;21.67;;
32874;SDS011;40468;42.128;24.750;2024-02-26T04:14:44;41.08;;;20.73;;
32874;SDS011;40468;42.128;24.750;2024-02-26T04:16:16;37.53;;;21.13;;
32874;SDS011;40468;42.128;24.750;2024-02-26T04:17:47;45.88;;;21.23;;
32874;SDS011;40468;42.128;24.750;2024-02-26T04:19:19;38.42;;;19.88;;
32874;SDS011;40468;42.128;24.750;2024-02-26T04:20:49;40.63;;;20.10;;
32874;SDS011;40468;42.128;24.750;2024-02-26T04:22:21;38.15;;;20.77;;
32874;SDS011;40468;42.128;24.750;2024-02-26T04:23:54;35.10;;;20.40;;
32874;SDS011;40468;42.128;24.750;2024-02-26T04:26:57;39.60;;;18.27;;
32874;SDS011;40468;42.128;24.750;2024-02-26T04:28:28;35.17;;;17.80;;
32874;SDS011;40468;42.128;24.750;2024-02-26T04:29:59;39.38;;;18.80;;
32874;SDS011;40468;42.128;24.750;2024-02-26T04:31:31;33.47;;;16.42;;
32874;SDS011;40468;42.128;24.750;2024-02-26T04:33:03;27.60;;;15.75;;
32874;SDS011;40468;42.128;24.750;2024-02-26T04:34:35;30.03;;;15.77;;
32874;SDS011;40468;42.128;24.750;2024-02-26T04:36:13;25.30;;;13.80;;
32874;SDS011;40468;42.128;24.750;2024-02-26T04:37:46;34.85;;;15.38;;
32874;SDS011;40468;42.128;24.750;2024-02-26T04:39:18;27.25;;;14.02;;
32874;SDS011;40468;42.128;24.750;2024-02-26T04:40:50;24.95;;;12.65;;
32874;SDS011;40468;42.128;24.750;2024-02-26T04:42:21;32.33;;;14.48;;
32874;SDS011;40468;42.128;24.750;2024-02-26T04:43:52;25.60;;;14.07;;
32874;SDS011;40468;42.128;24.750;2024-02-26T04:45:23;33.47;;;14.57;;
32874;SDS011;40468;42.128;24.750;2024-02-26T04:46:55;25.30;;;13.50;;
32874;SDS011;40468;42.128;24.750;2024-02-26T04:48:27;27.52;;;13.90;;
32874;SDS011;40468;42.128;24.750;2024-02-26T04:49:59;28.60;;;13.85;;
32874;SDS011;40468;42.128;24.750;2024-02-26T04:51:29;24.60;;;12.00;;
32874;SDS011;40468;42.128;24.750;2024-02-26T04:53:01;23.38;;;11.90;;
32874;SDS011;40468;42.128;24.750;2024-02-26T04:54:34;23.45;;;12.18;;
32874;SDS011;40468;42.128;24.750;2024-02-26T04:56:05;26.70;;;12.45;;
32874;SDS011;40468;42.128;24.750;2024-02-26T04:57:37;27.38;;;12.85;;
32874;SDS011;40468;42.128;24.750;2024-02-26T04:59:08;22.40;;;11.45;;
32874;SDS011;40468;42.128;24.750;2024-02-26T05:00:40;23.75;;;12.50;;
32874;SDS011;40468;42.128;24.750;2024-02-26T05:02:11;24.95;;;13.02;;
32874;SDS011;40468;42.128;24.750;2024-02-26T05:03:43;21.13;;;11.75;;
32874;SDS011;40468;42.128;24.750;2024-02-26T05:05:13;25.60;;;12.05;;
32874;SDS011;40468;42.128;24.750;2024-02-26T05:06:45;29.17;;;12.40;;
32874;SDS011;40468;42.128;24.750;2024-02-26T05:08:16;25.63;;;11.63;;
32874;SDS011;40468;42.128;24.750;2024-02-26T05:09:49;25.52;;;12.25;;
32874;SDS011;40468;42.128;24.750;2024-02-26T05:11:20;33.30;;;12.90;;
32874;SDS011;40468;42.128;24.750;2024-02-26T05:12:52;28.35;;;12.32;;
32874;SDS011;40468;42.128;24.750;2024-02-26T05:14:23;23.95;;;11.73;;
32874;SDS011;40468;42.128;24.750;2024-02-26T05:15:54;28.55;;;12.77;;
32874;SDS011;40468;42.128;24.750;2024-02-26T05:17:25;28.30;;;12.57;;
32874;SDS011;40468;42.128;24.750;2024-02-26T05:18:57;29.20;;;12.00;;
32874;SDS011;40468;42.128;24.750;2024-02-26T05:20:28;23.38;;;12.48;;
32874;SDS011;40468;42.128;24.750;2024-02-26T05:22:01;27.00;;;12.85;;
32874;SDS011;40468;42.128;24.750;2024-02-26T05:23:32;80.13;;;39.65;;
32874;SDS011;40468;42.128;24.750;2024-02-26T05:25:06;45.10;;;22.30;;
32874;SDS011;40468;42.128;24.750;2024-02-26T05:26:37;54.00;;;29.05;;
32874;SDS011;40468;42.128;24.750;2024-02-26T05:28:09;32.08;;;15.07;;
32874;SDS011;40468;42.128;24.750;2024-02-26T05:29:40;24.65;;;12.80;;
32874;SDS011;40468;42.128;24.750;2024-02-26T05:31:12;28.17;;;12.98;;
32874;SDS011;40468;42.128;24.750;2024-02-26T05:32:43;25.77;;;13.82;;
32874;SDS011;40468;42.128;24.750;2024-02-26T05:34:15;25.60;;;14.00;;
32874;SDS011;40468;42.128;24.750;2024-02-26T05:35:46;26.52;;;13.10;;
32874;SDS011;40468;42.128;24.750;2024-02-26T05:37:17;32.45;;;14.90;;
32874;SDS011;40468;42.128;24.750;2024-02-26T05:38:48;29.83;;;15.27;;
32874;SDS011;40468;42.128;24.750;2024-02-26T05:40:22;24.80;;;13.88;;
32874;SDS011;40468;42.128;24.750;2024-02-26T05:41:52;26.52;;;14.82;;
32874;SDS011;40468;42.128;24.750;2024-02-26T05:43:24;23.85;;;14.48;;
32874;SDS011;40468;42.128;24.750;2024-02-26T05:44:55;33.15;;;16.25;;
32874;SDS011;40468;42.128;24.750;2024-02-26T05:46:27;27.85;;;14.88;;
32874;SDS011;40468;42.128;24.750;2024-02-26T05:47:59;30.33;;;14.38;;
32874;SDS011;40468;42.128;24.750;2024-02-26T05:49:30;29.85;;;13.90;;
32874;SDS011;40468;42.128;24.750;2024-02-26T05:51:02;26.17;;;13.80;;
32874;SDS011;40468;42.128;24.750;2024-02-26T05:52:34;26.35;;;14.20;;
32874;SDS011;40468;42.128;24.750;2024-02-26T05:54:06;22.95;;;13.13;;
32874;SDS011;40468;42.128;24.750;2024-02-26T05:55:39;32.78;;;13.18;;
32874;SDS011;40468;42.128;24.750;2024-02-26T05:57:11;103.72;;;46.53;;
32874;SDS011;40468;42.128;24.750;2024-02-26T05:58:43;50.00;;;26.02;;
32874;SDS011;40468;42.128;24.750;2024-02-26T06:00:14;93.75;;;40.15;;
32874;SDS011;40468;42.128;24.750;2024-02-26T06:01:46;148.25;;;66.32;;
32874;SDS011;40468;42.128;24.750;2024-02-26T06:03:17;51.42;;;25.77;;
32874;SDS011;40468;42.128;24.750;2024-02-26T06:04:48;33.45;;;16.77;;
32874;SDS011;40468;42.128;24.750;2024-02-26T06:06:19;27.42;;;14.05;;
32874;SDS011;40468;42.128;24.750;2024-02-26T06:07:53;31.00;;;13.30;;
32874;SDS011;40468;42.128;24.750;2024-02-26T06:09:24;28.95;;;14.10;;
32874;SDS011;40468;42.128;24.750;2024-02-26T06:10:57;30.10;;;12.77;;
32874;SDS011;40468;42.128;24.750;2024-02-26T06:12:27;28.73;;;13.18;;
32874;SDS011;40468;42.128;24.750;2024-02-26T06:14:00;22.70;;;12.25;;
32874;SDS011;40468;42.128;24.750;2024-02-26T06:15:31;27.30;;;13.75;;
32874;SDS011;40468;42.128;24.750;2024-02-26T06:17:03;27.80;;;12.38;;
32874;SDS011;40468;42.128;24.750;2024-02-26T06:18:34;26.42;;;13.02;;
32874;SDS011;40468;42.128;24.750;2024-02-26T06:20:06;28.17;;;12.77;;
32874;SDS011;40468;42.128;24.750;2024-02-26T06:21:41;28.25;;;12.48;;
32874;SDS011;40468;42.128;24.750;2024-02-26T06:23:13;25.85;;;13.25;;
32874;SDS011;40468;42.128;24.750;2024-02-26T06:24:44;24.90;;;13.23;;
32874;SDS011;40468;42.128;24.750;2024-02-26T06:26:17;25.13;;;12.57;;
32874;SDS011;40468;42.128;24.750;2024-02-26T06:27:49;34.13;;;14.80;;
32874;SDS011;40468;42.128;24.750;2024-02-26T06:29:20;33.63;;;16.45;;
32874;SDS011;40468;42.128;24.750;2024-02-26T06:30:51;25.88;;;14.65;;
32874;SDS011;40468;42.128;24.750;2024-02-26T06:32:23;31.73;;;15.48;;
32874;SDS011;40468;42.128;24.750;2024-02-26T06:33:54;35.47;;;14.55;;
32874;SDS011;40468;42.128;24.750;2024-02-26T06:35:26;26.80;;;11.70;;
32874;SDS011;40468;42.128;24.750;2024-02-26T06:36:57;18.60;;;10.77;;
32874;SDS011;40468;42.128;24.750;2024-02-26T06:38:29;32.85;;;14.07;;
32874;SDS011;40468;42.128;24.750;2024-02-26T06:40:00;23.60;;;12.73;;
32874;SDS011;40468;42.128;24.750;2024-02-26T06:41:35;24.13;;;12.30;;
32874;SDS011;40468;42.128;24.750;2024-02-26T06:43:06;21.05;;;11.45;;
32874;SDS011;40468;42.128;24.750;2024-02-26T06:44:38;21.88;;;10.30;;
32874;SDS011;40468;42.128;24.750;2024-02-26T06:46:10;21.80;;;11.20;;
32874;SDS011;40468;42.128;24.750;2024-02-26T06:47:41;17.90;;;10.82;;
32874;SDS011;40468;42.128;24.750;2024-02-26T06:49:13;22.10;;;10.65;;
32874;SDS011;40468;42.128;24.750;2024-02-26T06:50:45;23.80;;;10.63;;
32874;SDS011;40468;42.128;24.750;2024-02-26T06:52:16;22.02;;;11.05;;
32874;SDS011;40468;42.128;24.750;2024-02-26T06:53:47;20.13;;;11.10;;
32874;SDS011;40468;42.128;24.750;2024-02-26T06:55:19;24.30;;;11.98;;
32874;SDS011;40468;42.128;24.750;2024-02-26T06:56:52;23.85;;;12.15;;
32874;SDS011;40468;42.128;24.750;2024-02-26T06:58:23;26.77;;;12.93;;
32874;SDS011;40468;42.128;24.750;2024-02-26T06:59:55;26.33;;;12.73;;
32874;SDS011;40468;42.128;24.750;2024-02-26T07:01:26;26.58;;;13.50;;
32874;SDS011;40468;42.128;24.750;2024-02-26T07:02:57;23.67;;;12.27;;
32874;SDS011;40468;42.128;24.750;2024-02-26T07:04:28;24.42;;;11.85;;
32874;SDS011;40468;42.128;24.750;2024-02-26T07:06:02;28.02;;;12.60;;
32874;SDS011;40468;42.128;24.750;2024-02-26T07:07:33;24.38;;;11.60;;
32874;SDS011;40468;42.128;24.750;2024-02-26T07:09:05;47.70;;;20.15;;
32874;SDS011;40468;42.128;24.750;2024-02-26T07:10:36;45.97;;;16.65;;
32874;SDS011;40468;42.128;24.750;2024-02-26T07:12:09;31.23;;;15.98;;
32874;SDS011;40468;42.128;24.750;2024-02-26T07:13:40;31.15;;;13.50;;
32874;SDS011;40468;42.128;24.750;2024-02-26T07:15:11;27.20;;;11.63;;
32874;SDS011;40468;42.128;24.750;2024-02-26T07:16:42;23.17;;;10.63;;
32874;SDS011;40468;42.128;24.750;2024-02-26T07:18:14;23.10;;;11.70;;
32874;SDS011;40468;42.128;24.750;2024-02-26T07:19:45;25.45;;;11.60;;
32874;SDS011;40468;42.128;24.750;2024-02-26T07:21:17;23.30;;;11.43;;
32874;SDS011;40468;42.128;24.750;2024-02-26T07:22:47;22.67;;;11.55;;
32874;SDS011;40468;42.128;24.750;2024-02-26T07:24:19;23.00;;;11.98;;
32874;SDS011;40468;42.128;24.750;2024-02-26T07:25:51;28.23;;;11.15;;
32874;SDS011;40468;42.128;24.750;2024-02-26T07:27:24;22.88;;;11.20;;
32874;SDS011;40468;42.128;24.750;2024-02-26T07:28:56;24.98;;;10.80;;
32874;SDS011;40468;42.128;24.750;2024-02-26T07:30:27;33.05;;;12.88;;
32874;SDS011;40468;42.128;24.750;2024-02-26T07:31:58;33.35;;;12.15;;
32874;SDS011;40468;42.128;24.750;2024-02-26T07:33:29;29.17;;;13.38;;
32874;SDS011;40468;42.128;24.750;2024-02-26T07:35:01;27.80;;;12.18;;
32874;SDS011;40468;42.128;24.750;2024-02-26T07:36:33;29.52;;;13.07;;
32874;SDS011;40468;42.128;24.750;2024-02-26T07:38:04;34.58;;;14.25;;
32874;SDS011;40468;42.128;24.750;2024-02-26T07:39:36;31.30;;;13.48;;
32874;SDS011;40468;42.128;24.750;2024-02-26T07:41:07;46.20;;;17.08;;
32874;SDS011;40468;42.128;24.750;2024-02-26T07:42:40;31.00;;;16.02;;
32874;SDS011;40468;42.128;24.750;2024-02-26T07:44:12;36.28;;;16.58;;
32874;SDS011;40468;42.128;24.750;2024-02-26T07:45:43;38.45;;;17.15;;
32874;SDS011;40468;42.128;24.750;2024-02-26T07:47:14;41.80;;;15.50;;
32874;SDS011;40468;42.128;24.750;2024-02-26T07:48:45;30.42;;;16.30;;
32874;SDS011;40468;42.128;24.750;2024-02-26T07:50:17;34.45;;;15.45;;
32874;SDS011;40468;42.128;24.750;2024-02-26T07:51:48;32.03;;;15.38;;
32874;SDS011;40468;42.128;24.750;2024-02-26T07:53:20;40.95;;;16.00;;
32874;SDS011;40468;42.128;24.750;2024-02-26T07:54:51;39.00;;;17.50;;
32874;SDS011;40468;42.128;24.750;2024-02-26T07:56:22;33.03;;;16.17;;
32874;SDS011;40468;42.128;24.750;2024-02-26T07:57:55;37.33;;;18.05;;
32874;SDS011;40468;42.128;24.750;2024-02-26T07:59:27;34.45;;;15.00;;
32874;SDS011;40468;42.128;24.750;2024-02-26T08:00:57;35.47;;;15.82;;
32874;SDS011;40468;42.128;24.750;2024-02-26T08:02:29;36.13;;;15.50;;
32874;SDS011;40468;42.128;24.750;2024-02-26T08:04:00;33.25;;;15.57;;
32874;SDS011;40468;42.128;24.750;2024-02-26T08:05:32;32.03;;;14.98;;
32874;SDS011;40468;42.128;24.750;2024-02-26T08:07:03;28.73;;;13.80;;
32874;SDS011;40468;42.128;24.750;2024-02-26T08:08:35;29.48;;;14.68;;
32874;SDS011;40468;42.128;24.750;2024-02-26T08:10:06;28.90;;;15.10;;
32874;SDS011;40468;42.128;24.750;2024-02-26T08:11:38;28.08;;;14.90;;
32874;SDS011;40468;42.128;24.750;2024-02-26T08:13:11;30.45;;;14.05;;
32874;SDS011;40468;42.128;24.750;2024-02-26T08:14:43;30.92;;;13.35;;
32874;SDS011;40468;42.128;24.750;2024-02-26T08:16:14;41.28;;;14.57;;
32874;SDS011;40468;42.128;24.750;2024-02-26T08:17:45;30.08;;;14.13;;
32874;SDS011;40468;42.128;24.750;2024-02-26T08:19:17;28.95;;;14.25;;
32874;SDS011;40468;42.128;24.750;2024-02-26T08:20:49;28.13;;;13.48;;
32874;SDS011;40468;42.128;24.750;2024-02-26T08:22:21;29.85;;;13.80;;
32874;SDS011;40468;42.128;24.750;2024-02-26T08:23:52;26.67;;;12.80;;
32874;SDS011;40468;42.128;24.750;2024-02-26T08:25:24;30.70;;;14.07;;
32874;SDS011;40468;42.128;24.750;2024-02-26T08:26:55;27.70;;;13.02;;
32874;SDS011;40468;42.128;24.750;2024-02-26T08:28:28;28.42;;;13.35;;
32874;SDS011;40468;42.128;24.750;2024-02-26T08:29:59;28.65;;;13.63;;
32874;SDS011;40468;42.128;24.750;2024-02-26T08:31:31;29.10;;;13.45;;
32874;SDS011;40468;42.128;24.750;2024-02-26T08:33:02;25.88;;;12.57;;
32874;SDS011;40468;42.128;24.750;2024-02-26T08:34:34;36.08;;;14.10;;
32874;SDS011;40468;42.128;24.750;2024-02-26T08:36:05;32.53;;;13.75;;
32874;SDS011;40468;42.128;24.750;2024-02-26T08:37:37;39.37;;;14.53;;
32874;SDS011;40468;42.128;24.750;2024-02-26T08:39:08;27.50;;;14.07;;
32874;SDS011;40468;42.128;24.750;2024-02-26T08:40:40;33.03;;;14.75;;
32874;SDS011;40468;42.128;24.750;2024-02-26T08:42:11;27.63;;;14.90;;
32874;SDS011;40468;42.128;24.750;2024-02-26T08:43:44;31.65;;;15.57;;
32874;SDS011;40468;42.128;24.750;2024-02-26T08:45:15;29.10;;;13.93;;
32874;SDS011;40468;42.128;24.750;2024-02-26T08:46:47;37.70;;;15.82;;
32874;SDS011;40468;42.128;24.750;2024-02-26T08:48:18;28.67;;;15.13;;
32874;SDS011;40468;42.128;24.750;2024-02-26T08:49:49;27.60;;;14.68;;
32874;SDS011;40468;42.128;24.750;2024-02-26T08:51:20;29.55;;;13.73;;
32874;SDS011;40468;42.128;24.750;2024-02-26T08:52:52;30.27;;;14.00;;